createdAt,value
2023-03-12T05:41:11.154Z,100.00
2023-03-12T05:44:16.055Z,100.00
2023-03-12T06:04:35.242Z,100.00
2023-03-12T06:07:37.955Z,100.00
2023-03-12T06:10:40.837Z,100.00
2023-03-12T06:13:43.641Z,100.00
2023-03-12T06:16:46.261Z,100.00
2023-03-12T06:19:52.829Z,100.00
2023-03-12T06:22:55.396Z,100.00
2023-03-12T06:25:57.958Z,100.00
2023-03-12T06:29:00.549Z,100.00
2023-03-12T06:32:03.133Z,100.00
2023-03-12T06:35:07.755Z,100.00
2023-03-12T06:38:10.347Z,100.00
2023-03-12T06:41:15.159Z,100.00
2023-03-12T06:44:17.927Z,99.29
2023-03-12T06:47:20.483Z,98.45
2023-03-12T06:50:24.320Z,97.10
2023-03-12T06:53:27.267Z,95.75
2023-03-12T06:56:30.521Z,96.58
2023-03-12T06:59:33.032Z,95.88
2023-03-12T07:02:35.594Z,97.54
2023-03-12T07:05:39.456Z,99.19
2023-03-12T07:08:43.021Z,100.00
2023-03-12T07:11:45.626Z,100.00
2023-03-12T07:14:48.146Z,99.24
2023-03-12T07:17:50.831Z,100.00
2023-03-12T07:20:55.341Z,100.00
2023-03-12T07:23:57.909Z,100.00
2023-03-12T07:27:00.484Z,100.00
2023-03-12T07:30:02.995Z,100.00
2023-03-12T07:33:06.356Z,100.00
2023-03-12T07:36:10.672Z,100.00
2023-03-12T07:39:13.227Z,100.00
2023-03-12T07:42:15.834Z,100.00
2023-03-12T07:45:18.857Z,100.00
2023-03-12T07:48:21.464Z,99.39
2023-03-12T07:51:25.333Z,97.96
2023-03-12T07:54:30.693Z,95.63
2023-03-12T07:57:33.411Z,94.96
2023-03-12T08:00:36.047Z,96.45
2023-03-12T08:03:39.031Z,93.93
2023-03-12T08:06:43.569Z,93.28
2023-03-12T08:09:49.450Z,91.58
2023-03-12T08:12:52.159Z,91.56
2023-03-12T08:15:55.559Z,91.63
2023-03-12T08:18:58.546Z,91.03
2023-03-12T08:22:02.384Z,89.29
2023-03-12T08:25:05.755Z,88.91
2023-03-12T08:28:08.272Z,86.06
2023-03-12T08:31:11.528Z,84.14
2023-03-12T08:34:14.028Z,82.65
2023-03-12T08:37:17.960Z,80.02
2023-03-12T08:40:20.699Z,77.97
2023-03-12T08:43:23.198Z,74.72
2023-03-12T08:46:25.734Z,73.92
2023-03-12T08:49:28.537Z,75.42
2023-03-12T08:52:32.402Z,73.81
2023-03-12T08:55:34.892Z,71.28
2023-03-12T08:58:37.476Z,70.64
2023-03-12T09:01:43.435Z,69.88
2023-03-12T09:04:48.902Z,70.25
2023-03-12T09:07:52.761Z,71.18
2023-03-12T09:10:55.316Z,74.26
2023-03-12T09:14:28.394Z,71.11
2023-03-12T09:17:20.373Z,73.30
2023-03-12T09:20:23.494Z,70.48
2023-03-12T09:23:28.530Z,73.70
2023-03-12T09:26:31.101Z,72.79
2023-03-12T09:29:34.000Z,70.43
2023-03-12T09:32:36.875Z,73.28
2023-03-12T09:35:39.609Z,71.91
2023-03-12T09:38:43.491Z,71.50
2023-03-12T09:41:48.402Z,68.36
2023-03-12T09:44:53.012Z,68.63
2023-03-12T09:47:58.009Z,69.36
2023-03-12T09:51:07.120Z,66.96
2023-03-12T09:54:25.554Z,64.45
2023-03-12T09:57:30.014Z,67.93
2023-03-12T10:00:36.033Z,68.83
2023-03-12T10:03:54.550Z,71.75
2023-03-12T10:07:09.899Z,69.80
2023-03-12T10:10:28.951Z,71.12
2023-03-12T10:13:58.722Z,69.95
2023-03-12T10:17:16.069Z,69.90
2023-03-12T10:20:41.233Z,69.78
2023-03-12T10:23:56.584Z,69.82
2023-03-12T10:27:01.815Z,68.42
2023-03-12T10:30:13.968Z,67.28
2023-03-12T10:33:19.664Z,71.02
2023-03-12T10:36:26.962Z,68.73
2023-03-12T10:39:29.566Z,69.37
2023-03-12T10:42:33.907Z,69.66
2023-03-12T10:45:41.176Z,67.24
2023-03-12T10:48:44.131Z,68.42
2023-03-12T10:51:56.429Z,66.13
2023-03-12T10:55:11.329Z,65.55
2023-03-12T10:58:25.135Z,67.77
2023-03-12T11:01:30.142Z,65.30
2023-03-12T11:04:34.798Z,65.27
2023-03-12T11:07:37.490Z,69.50
2023-03-12T11:10:44.292Z,68.78
2023-03-12T11:13:48.293Z,71.31
2023-03-12T11:16:51.947Z,71.61
2023-03-12T11:19:55.419Z,69.69
2023-03-12T11:22:58.111Z,70.83
2023-03-12T11:26:03.755Z,70.52
2023-03-12T11:29:26.079Z,73.66
2023-03-12T11:32:34.278Z,74.49
2023-03-12T11:35:50.434Z,73.92
2023-03-12T11:39:04.578Z,74.31
2023-03-12T11:42:26.584Z,73.55
2023-03-12T11:45:33.160Z,72.58
2023-03-12T11:48:46.606Z,72.39
2023-03-12T11:51:56.618Z,69.22
2023-03-12T11:55:20.496Z,69.34
2023-03-12T11:58:36.916Z,71.71
2023-03-12T12:01:53.007Z,70.01
2023-03-12T12:05:23.411Z,72.10
2023-03-12T12:08:37.785Z,70.36
2023-03-12T12:11:51.374Z,69.97
2023-03-12T12:15:04.455Z,69.87
2023-03-12T12:18:27.457Z,70.83
2023-03-12T12:22:00.034Z,69.38
2023-03-12T12:25:22.535Z,69.44
2023-03-12T12:28:55.547Z,69.32
2023-03-12T12:32:00.127Z,68.97
2023-03-12T12:35:16.103Z,68.79
2023-03-12T12:38:30.289Z,67.32
2023-03-12T12:41:36.316Z,67.15
2023-03-12T12:44:44.659Z,66.34
2023-03-12T12:47:51.870Z,67.43
2023-03-12T12:50:59.615Z,67.37
2023-03-12T12:54:09.674Z,64.63
2023-03-12T12:57:19.613Z,64.66
2023-03-12T13:00:41.334Z,64.03
2023-03-12T13:03:45.366Z,61.72
2023-03-12T13:06:57.618Z,60.62
2023-03-12T13:10:00.693Z,62.50
2023-03-12T13:13:10.215Z,62.75
2023-03-12T13:16:28.758Z,63.79
2023-03-12T13:19:31.479Z,64.63
2023-03-12T13:22:49.069Z,64.54
2023-03-12T13:26:01.141Z,64.99
2023-03-12T13:29:22.146Z,65.21
2023-03-12T13:33:07.389Z,65.34
2023-03-12T13:36:24.351Z,65.15
2023-03-12T13:39:32.980Z,65.51
2023-03-12T13:42:42.834Z,64.55
2023-03-12T13:45:59.307Z,64.99
2023-03-12T13:49:06.700Z,65.52
2023-03-12T13:52:20.604Z,66.90
2023-03-12T13:55:28.203Z,65.53
2023-03-12T13:58:31.800Z,65.00
2023-03-12T14:01:39.008Z,65.71
2023-03-12T14:04:43.325Z,65.17
2023-03-12T14:07:58.870Z,65.77
2023-03-12T14:11:20.196Z,62.58
2023-03-12T14:14:48.344Z,64.38
2023-03-12T14:17:57.598Z,64.37
2023-03-12T14:21:02.868Z,62.95
2023-03-12T14:24:08.612Z,61.46
2023-03-12T14:27:18.705Z,60.46
2023-03-12T14:30:25.594Z,61.75
2023-03-12T14:33:34.700Z,63.15
2023-03-12T14:36:40.675Z,65.07
2023-03-12T14:39:46.591Z,67.84
2023-03-12T14:42:50.841Z,68.85
2023-03-12T14:45:56.048Z,66.06
2023-03-12T14:48:58.582Z,64.96
2023-03-12T14:52:01.095Z,63.45
2023-03-12T14:55:09.178Z,61.85
2023-03-12T14:58:19.899Z,59.51
2023-03-12T15:01:24.924Z,58.26
2023-03-12T15:04:27.996Z,57.10
2023-03-12T15:07:33.759Z,55.21
2023-03-12T15:10:36.373Z,55.78
2023-03-12T15:13:40.839Z,56.55
2023-03-12T15:16:44.245Z,53.98
2023-03-12T15:19:47.814Z,55.79
2023-03-12T15:22:51.052Z,57.14
2023-03-12T15:26:14.433Z,56.26
2023-03-12T15:29:27.185Z,56.54
2023-03-12T15:32:31.883Z,57.54
2023-03-12T15:35:34.929Z,59.85
2023-03-12T15:38:39.218Z,60.86
2023-03-12T15:41:44.131Z,63.15
2023-03-12T15:44:49.929Z,65.71
2023-03-12T15:47:55.358Z,66.85
2023-03-12T15:50:58.035Z,68.05
2023-03-12T15:54:06.748Z,69.69
2023-03-12T15:57:27.263Z,70.24
2023-03-12T16:00:33.138Z,70.77
2023-03-12T16:03:35.894Z,71.19
2023-03-12T16:06:38.502Z,72.87
2023-03-12T16:09:41.181Z,74.06
2023-03-12T16:12:44.937Z,75.30
2023-03-12T16:15:49.655Z,75.10
2023-03-12T16:18:52.146Z,74.37
2023-03-12T16:21:54.669Z,72.38
2023-03-12T16:24:57.222Z,72.43
2023-03-12T16:28:02.913Z,72.77
2023-03-12T16:31:12.315Z,71.91
2023-03-12T16:34:14.930Z,72.08
2023-03-12T16:37:17.430Z,73.33
2023-03-12T16:40:32.482Z,73.66
2023-03-12T16:59:31.836Z,79.19
